createdAt,value
2018-09-26T04:32:30.168Z,13.50
2018-09-26T04:34:58.125Z,11.60
2018-09-26T04:37:26.157Z,11.43
2018-09-26T04:39:54.201Z,8.10
2018-09-26T04:42:22.797Z,11.90
2018-09-26T04:44:50.764Z,11.10
2018-09-26T04:47:18.860Z,10.00
2018-09-26T04:49:46.853Z,9.87
2018-09-26T04:52:15.592Z,15.47
2018-09-26T04:54:46.424Z,9.80
2018-09-26T04:57:14.440Z,10.93
2018-09-26T04:59:42.401Z,12.23
2018-09-26T05:02:10.420Z,6.93
2018-09-26T05:04:38.411Z,8.80
2018-09-26T05:07:06.478Z,10.17
2018-09-26T05:09:35.021Z,11.00
2018-09-26T05:12:03.551Z,10.30
2018-09-26T05:14:31.607Z,8.63
2018-09-26T05:16:59.792Z,9.53
2018-09-26T05:19:27.775Z,10.30
2018-09-26T05:21:57.121Z,7.87
2018-09-26T05:24:25.133Z,10.40
2018-09-26T05:26:53.183Z,9.57
2018-09-26T05:29:22.380Z,8.33
2018-09-26T05:31:54.282Z,9.27
2018-09-26T05:34:24.041Z,8.13
2018-09-26T05:36:53.889Z,10.23
2018-09-26T05:39:24.849Z,9.60
2018-09-26T05:41:53.585Z,8.70
2018-09-26T05:44:21.583Z,9.90
2018-09-26T05:46:51.531Z,10.60
2018-09-26T05:49:21.273Z,7.43
2018-09-26T05:51:51.325Z,11.70
2018-09-26T05:54:19.375Z,11.87
2018-09-26T05:56:47.621Z,8.17
2018-09-26T05:59:16.668Z,7.10
2018-09-26T06:01:44.748Z,8.80
2018-09-26T06:04:14.861Z,9.13
2018-09-26T06:06:42.931Z,7.60
2018-09-26T06:09:13.329Z,10.67
2018-09-26T06:11:45.357Z,17.97
2018-09-26T06:14:19.666Z,11.27
2018-09-26T06:16:47.755Z,10.00
2018-09-26T06:19:16.503Z,10.90
2018-09-26T06:21:44.472Z,9.53
2018-09-26T06:24:12.598Z,8.40
2018-09-26T06:26:40.640Z,13.50
2018-09-26T06:29:08.962Z,15.70
2018-09-26T06:31:37.007Z,9.30
2018-09-26T06:34:05.027Z,12.17
2018-09-26T06:36:34.159Z,11.53
2018-09-26T06:39:02.614Z,10.93
2018-09-26T06:41:31.482Z,8.40
2018-09-26T06:43:59.517Z,9.93
2018-09-26T06:46:28.473Z,6.60
2018-09-26T06:48:57.464Z,9.83
2018-09-26T06:51:29.298Z,8.60
2018-09-26T06:53:57.407Z,8.60
2018-09-26T06:56:27.744Z,7.00
2018-09-26T06:58:55.919Z,11.40
2018-09-26T07:01:24.926Z,10.00
2018-09-26T07:03:53.022Z,6.80
2018-09-26T07:06:21.084Z,6.93
2018-09-26T07:08:50.359Z,5.57
2018-09-26T07:11:18.445Z,8.27
2018-09-26T07:13:47.825Z,11.03
2018-09-26T07:16:15.987Z,6.20
2018-09-26T07:18:43.936Z,8.53
2018-09-26T07:21:11.975Z,7.97
2018-09-26T07:23:40.691Z,8.00
2018-09-26T07:26:08.929Z,9.80
2018-09-26T07:28:36.947Z,4.90
2018-09-26T07:31:07.021Z,6.43
2018-09-26T07:33:35.030Z,5.73
2018-09-26T07:36:03.143Z,5.70
2018-09-26T07:38:31.177Z,7.40
2018-09-26T07:40:59.128Z,6.43
2018-09-26T07:43:27.159Z,5.40
2018-09-26T07:45:55.323Z,9.63
2018-09-26T07:48:23.227Z,14.03
2018-09-26T07:50:51.438Z,6.73
2018-09-26T07:53:19.457Z,9.73
2018-09-26T07:55:47.412Z,6.93
2018-09-26T07:58:15.401Z,7.30
2018-09-26T08:00:43.389Z,6.60
2018-09-26T08:03:11.385Z,6.37
2018-09-26T08:05:39.416Z,8.97
2018-09-26T08:08:07.488Z,9.13
2018-09-26T08:10:35.799Z,11.70
2018-09-26T08:13:03.817Z,6.20
2018-09-26T08:15:33.448Z,6.30
2018-09-26T08:18:01.947Z,9.07
2018-09-26T08:20:30.125Z,7.00
2018-09-26T08:22:58.223Z,10.67
2018-09-26T08:25:27.246Z,3.67
2018-09-26T08:28:00.031Z,5.13
2018-09-26T08:30:29.175Z,7.57
2018-09-26T08:32:57.151Z,6.70
2018-09-26T08:35:25.338Z,3.53
2018-09-26T08:37:53.496Z,5.10
2018-09-26T08:40:21.639Z,4.73
2018-09-26T08:42:55.851Z,6.43
2018-09-26T08:45:23.888Z,6.07
2018-09-26T08:47:52.972Z,6.03
2018-09-26T08:50:21.925Z,4.57
2018-09-26T08:52:51.901Z,3.90
2018-09-26T08:55:20.183Z,6.20
2018-09-26T08:57:48.245Z,8.30
2018-09-26T09:00:20.563Z,5.17
2018-09-26T09:02:50.219Z,7.40
2018-09-26T09:05:19.572Z,6.17
2018-09-26T09:07:48.399Z,3.37
2018-09-26T09:10:16.506Z,3.57
2018-09-26T09:12:44.845Z,3.60
2018-09-26T09:15:14.333Z,4.83
2018-09-26T09:17:42.403Z,4.73
2018-09-26T09:20:12.229Z,5.23
2018-09-26T09:22:43.262Z,7.03
2018-09-26T09:25:11.236Z,3.30
2018-09-26T09:27:39.269Z,3.13
2018-09-26T09:30:07.980Z,12.03
2018-09-26T09:35:09.816Z,2.90
2018-09-26T09:37:37.941Z,4.67
2018-09-26T09:40:06.478Z,3.90
2018-09-26T09:42:34.883Z,3.43
2018-09-26T09:45:02.867Z,4.90
2018-09-26T09:47:31.256Z,3.33
2018-09-26T09:49:59.234Z,6.93
2018-09-26T09:52:27.154Z,1.90
2018-09-26T09:54:55.172Z,3.80
2018-09-26T09:57:23.445Z,4.43
2018-09-26T09:59:51.398Z,2.37
2018-09-26T10:02:19.522Z,2.07
2018-09-26T10:04:47.530Z,3.97
2018-09-26T10:07:15.555Z,3.07
2018-09-26T10:09:44.132Z,5.13
2018-09-26T10:12:12.134Z,2.70
2018-09-26T10:14:40.749Z,3.77
2018-09-26T10:17:08.749Z,1.60
2018-09-26T10:19:36.917Z,1.60
2018-09-26T10:22:05.040Z,3.13
2018-09-26T10:24:33.566Z,2.27
2018-09-26T10:27:01.629Z,3.73
2018-09-26T10:29:31.962Z,2.07
2018-09-26T10:32:03.007Z,2.40
2018-09-26T10:34:32.770Z,1.73
2018-09-26T10:37:01.696Z,3.33
2018-09-26T10:39:34.345Z,2.60
2018-09-26T10:42:05.034Z,3.70
2018-09-26T10:44:35.115Z,2.07
2018-09-26T10:47:06.381Z,4.63
2018-09-26T10:49:36.149Z,3.00
2018-09-26T10:52:06.633Z,3.93
2018-09-26T10:54:36.178Z,1.60
2018-09-26T10:57:04.362Z,1.43
2018-09-26T10:59:36.083Z,4.77
2018-09-26T11:02:10.064Z,2.13
2018-09-26T11:04:40.771Z,1.60
2018-09-26T11:07:09.914Z,3.03
2018-09-26T11:09:40.989Z,2.87
2018-09-26T11:12:11.666Z,3.07
2018-09-26T11:14:41.294Z,2.03
2018-09-26T11:17:11.878Z,2.73
2018-09-26T11:22:18.859Z,2.17
2018-09-26T11:24:49.444Z,3.33
2018-09-26T11:27:19.365Z,1.87
2018-09-26T11:29:47.379Z,3.70
2018-09-26T11:32:15.548Z,3.13
2018-09-26T11:34:43.555Z,3.03
2018-09-26T11:37:11.833Z,4.63
2018-09-26T11:39:40.696Z,3.87
2018-09-26T11:42:10.301Z,2.57
2018-09-26T11:44:40.937Z,1.50
2018-09-26T11:47:10.096Z,1.97
2018-09-26T11:49:38.111Z,1.50
2018-09-26T11:52:09.104Z,2.50
2018-09-26T11:54:37.110Z,1.70
2018-09-26T11:57:05.718Z,3.67
2018-09-26T11:59:39.671Z,2.37
2018-09-26T12:02:08.326Z,2.80
2018-09-26T12:04:38.657Z,4.97
2018-09-26T12:07:08.389Z,3.67
2018-09-26T12:09:38.529Z,5.17
2018-09-26T12:12:10.613Z,3.57
2018-09-26T12:14:39.317Z,1.73
2018-09-26T12:17:10.465Z,2.30
2018-09-26T12:19:40.447Z,1.67
2018-09-26T12:22:11.119Z,2.40
2018-09-26T12:24:41.691Z,8.33
2018-09-26T12:27:11.188Z,1.60
2018-09-26T12:29:44.935Z,1.80
2018-09-26T12:32:15.230Z,3.00
2018-09-26T12:34:46.324Z,2.93
2018-09-26T12:37:15.134Z,1.83
2018-09-26T12:39:43.513Z,5.47
2018-09-26T12:42:17.079Z,3.23
2018-09-26T12:44:48.379Z,2.77
2018-09-26T12:47:17.837Z,5.77
2018-09-26T12:49:47.712Z,3.90
2018-09-26T12:54:55.305Z,3.83
2018-09-26T12:57:26.669Z,1.80
2018-09-26T12:59:56.793Z,5.60
2018-09-26T13:02:26.508Z,2.23
2018-09-26T13:04:55.978Z,2.77
2018-09-26T13:07:26.098Z,3.30
2018-09-26T13:09:56.177Z,6.67
2018-09-26T13:12:26.514Z,5.50
2018-09-26T13:14:54.734Z,2.40
2018-09-26T13:17:26.241Z,3.30
2018-09-26T13:19:58.385Z,3.00
2018-09-26T13:22:27.078Z,1.87
2018-09-26T13:24:57.741Z,2.60
2018-09-26T13:27:25.823Z,4.50
2018-09-26T13:29:56.928Z,1.70
2018-09-26T13:32:27.767Z,4.83
2018-09-26T13:34:58.021Z,2.60
2018-09-26T13:37:26.320Z,3.73
2018-09-26T13:39:54.579Z,6.93
2018-09-26T13:42:23.796Z,14.03
2018-09-26T13:44:52.953Z,5.80
2018-09-26T13:47:22.984Z,4.57
2018-09-26T13:49:51.416Z,4.90
2018-09-26T13:52:20.610Z,9.00
2018-09-26T13:54:50.842Z,6.03
2018-09-26T13:57:25.536Z,3.33
2018-09-26T13:59:54.613Z,3.33
2018-09-26T14:02:24.657Z,6.67
2018-09-26T14:04:56.286Z,3.70
2018-09-26T14:07:25.633Z,4.67
2018-09-26T14:09:54.353Z,3.37
2018-09-26T14:12:23.900Z,4.57
2018-09-26T14:14:54.224Z,4.07
2018-09-26T14:17:22.271Z,3.73
2018-09-26T14:20:01.270Z,4.43
2018-09-26T14:22:29.369Z,2.50
2018-09-26T14:24:57.411Z,4.83
2018-09-26T14:27:25.454Z,5.50
2018-09-26T14:29:53.494Z,5.00
2018-09-26T14:32:21.630Z,5.17
2018-09-26T14:34:49.850Z,4.30
2018-09-26T14:37:17.900Z,3.20
2018-09-26T14:39:46.083Z,9.83
2018-09-26T14:42:14.236Z,2.33
2018-09-26T14:44:42.303Z,3.40
2018-09-26T14:47:10.634Z,4.00
2018-09-26T14:49:38.693Z,5.90
2018-09-26T14:52:06.905Z,7.40
2018-09-26T14:54:34.983Z,7.17
2018-09-26T14:57:03.085Z,2.97
2018-09-26T14:59:31.141Z,3.03
2018-09-26T15:01:59.536Z,6.57
2018-09-26T15:04:27.640Z,3.57
2018-09-26T15:06:55.633Z,3.20
2018-09-26T15:09:23.710Z,3.67
2018-09-26T15:11:51.853Z,4.57
2018-09-26T15:14:19.910Z,2.63
2018-09-26T15:16:48.025Z,4.10
2018-09-26T15:19:16.490Z,4.20
2018-09-26T15:21:44.528Z,2.80
2018-09-26T15:24:12.612Z,7.07
2018-09-26T15:26:41.148Z,4.83
2018-09-26T15:29:09.281Z,2.43
2018-09-26T15:31:37.294Z,4.67
2018-09-26T15:34:05.453Z,8.00
2018-09-26T15:36:33.481Z,4.20
2018-09-26T15:39:01.976Z,4.33
2018-09-26T15:41:30.413Z,4.83
2018-09-26T15:43:58.658Z,8.07
2018-09-26T15:46:26.782Z,6.57
2018-09-26T15:48:54.842Z,4.47
2018-09-26T15:51:22.936Z,3.80
2018-09-26T15:53:51.009Z,2.77
2018-09-26T15:56:19.592Z,5.63
2018-09-26T15:58:47.677Z,10.60
2018-09-26T16:01:15.947Z,3.20
2018-09-26T16:03:55.057Z,4.80
2018-09-26T16:06:23.556Z,6.20
2018-09-26T16:08:51.533Z,3.40
2018-09-26T16:11:19.577Z,2.47
2018-09-26T16:13:47.610Z,6.10
2018-09-26T16:16:15.696Z,4.63
2018-09-26T16:18:43.674Z,3.87
2018-09-26T16:21:11.989Z,9.40
2018-09-26T16:32:07.231Z,5.03
2018-09-26T16:34:35.275Z,5.03
2018-09-26T16:37:03.844Z,5.83
2018-09-26T16:39:31.933Z,8.23
2018-09-26T16:41:59.930Z,7.00
2018-09-26T16:44:27.946Z,3.63
2018-09-26T16:46:56.044Z,7.23
2018-09-26T16:49:24.026Z,6.83
2018-09-26T16:51:52.286Z,2.80
2018-09-26T16:54:20.401Z,4.67
2018-09-26T16:56:48.685Z,3.37
2018-09-26T16:59:16.696Z,8.57
2018-09-26T17:01:44.684Z,4.00
2018-09-26T17:04:13.456Z,3.60
2018-09-26T17:06:41.441Z,5.60
2018-09-26T17:09:09.583Z,6.80
2018-09-26T17:11:37.592Z,3.87
2018-09-26T17:14:05.563Z,10.00
2018-09-26T17:16:33.554Z,8.60
2018-09-26T17:19:01.554Z,7.80
2018-09-26T17:21:29.543Z,3.00
2018-09-26T17:23:57.574Z,2.30
2018-09-26T17:26:25.690Z,7.63
2018-09-26T17:28:53.607Z,7.00
2018-09-26T17:31:21.583Z,5.10
2018-09-26T17:33:49.622Z,2.40
2018-09-26T17:36:17.776Z,2.93
2018-09-26T17:38:45.764Z,5.07
2018-09-26T17:41:13.834Z,4.60
2018-09-26T17:43:41.879Z,3.87
2018-09-26T17:46:09.909Z,6.00
2018-09-26T17:48:37.921Z,3.73
2018-09-26T17:51:06.005Z,7.53
2018-09-26T17:53:34.057Z,3.93
2018-09-26T17:56:02.051Z,5.70
2018-09-26T17:58:30.057Z,2.37
2018-09-26T18:00:58.049Z,5.13
2018-09-26T18:03:26.070Z,4.00
2018-09-26T18:05:54.084Z,10.67
2018-09-26T18:08:22.056Z,4.37
2018-09-26T18:10:50.065Z,12.13
2018-09-26T18:13:18.111Z,3.60
2018-09-26T18:15:46.093Z,12.93
2018-09-26T18:18:14.109Z,18.47
2018-09-26T18:20:42.130Z,12.03
2018-09-26T18:23:10.394Z,5.70
2018-09-26T18:25:38.357Z,7.73
2018-09-26T18:28:06.383Z,3.70
2018-09-26T18:30:34.852Z,7.20
2018-09-26T18:33:04.078Z,5.00
2018-09-26T18:35:32.044Z,5.60
2018-09-26T18:38:00.089Z,9.13
2018-09-26T18:40:29.746Z,11.37
2018-09-26T18:42:59.130Z,5.13
2018-09-26T18:45:28.474Z,13.87
2018-09-26T18:47:57.533Z,4.73
2018-09-26T18:50:26.772Z,5.47
2018-09-26T18:52:55.562Z,5.00
2018-09-26T18:55:24.820Z,5.87
2018-09-26T18:57:54.169Z,10.10
2018-09-26T19:00:24.676Z,30.73
2018-09-26T19:02:55.666Z,35.43
2018-09-26T19:05:26.046Z,20.10
2018-09-26T19:07:56.906Z,6.70
2018-09-26T19:10:33.594Z,9.57
2018-09-26T19:18:46.677Z,5.37
2018-09-26T19:21:15.454Z,5.63
2018-09-26T19:23:44.110Z,11.40
2018-09-26T19:26:13.060Z,16.00
2018-09-26T19:28:41.963Z,12.03
2018-09-26T19:31:10.889Z,10.90
2018-09-26T19:33:39.414Z,12.60
2018-09-26T19:36:24.573Z,6.07
2018-09-26T19:38:53.030Z,12.07
2018-09-26T19:41:23.141Z,11.50
2018-09-26T19:43:51.621Z,9.03
2018-09-26T19:46:21.510Z,5.37
2018-09-26T19:48:52.267Z,6.70
2018-09-26T19:51:21.734Z,3.60
2018-09-26T19:59:36.709Z,10.67
2018-09-26T20:02:05.513Z,11.97
2018-09-26T20:04:33.966Z,13.13
2018-09-26T20:07:02.902Z,11.10
2018-09-26T20:09:31.034Z,6.30
2018-09-26T20:11:59.440Z,9.07
2018-09-26T20:14:28.519Z,5.63
2018-09-26T20:17:00.289Z,8.60
2018-09-26T20:19:28.333Z,7.07
2018-09-26T20:21:56.703Z,8.10
2018-09-26T20:24:25.830Z,4.07
2018-09-26T20:26:58.111Z,6.70
2018-09-26T20:29:26.683Z,5.53
2018-09-26T20:31:55.125Z,10.80
2018-09-26T20:34:23.429Z,7.00
2018-09-26T20:36:51.860Z,7.53
2018-09-26T20:39:20.170Z,7.00
2018-09-26T20:44:44.759Z,6.67
2018-09-26T20:47:14.786Z,8.50
2018-09-26T20:49:43.124Z,5.83
2018-09-26T20:52:11.758Z,8.83
2018-09-26T20:54:40.083Z,12.70
2018-09-26T20:57:08.170Z,6.23
2018-09-26T20:59:36.776Z,7.27
2018-09-26T21:02:05.335Z,10.30
2018-09-26T21:04:33.820Z,9.03
2018-09-26T21:07:02.332Z,12.27
2018-09-26T21:09:31.022Z,9.10
2018-09-26T21:11:59.357Z,7.30
2018-09-26T21:14:28.416Z,8.50
2018-09-26T21:16:56.907Z,19.73
2018-09-26T21:19:26.758Z,7.07
2018-09-26T21:21:55.465Z,9.30
2018-09-26T21:24:23.564Z,9.73
2018-09-26T21:26:52.832Z,11.93
2018-09-26T21:29:21.377Z,7.27
2018-09-26T21:31:49.936Z,15.33
2018-09-26T21:34:18.075Z,11.33
2018-09-26T21:36:46.362Z,10.70
2018-09-26T21:39:14.502Z,7.90
2018-09-26T21:41:43.430Z,7.70
2018-09-26T21:44:11.554Z,9.87
2018-09-26T21:46:40.647Z,8.50
2018-09-26T21:49:09.073Z,10.03
2018-09-26T21:51:37.606Z,12.90
2018-09-26T21:54:05.995Z,14.87
2018-09-26T21:56:34.669Z,12.07
2018-09-26T21:59:02.976Z,10.13
